Time;durP1;ratioP1;P1;durP2;ratioP2;P2;SDS_P1;SDS_P2;PMS_P1;PMS_P2;Temp;Humidity;BMP_temperature;BMP_pressure;BME280_temperature;BME280_humidity;BME280_pressure;Samples;Min_cycle;Max_cycle;Signal;HPM_P1;HPM_P2
2021/11/17 02:28:01;;;;;;;2.08;1.55;;;20.10;54.30;;;;;;5033010;28;20630;-60
2021/11/17 02:30:34;;;;;;;2.65;1.55;;;20.20;54.30;;;;;;5028671;28;20026;-60
2021/11/17 02:33:32;;;;;;;2.20;1.50;;;20.10;54.30;;;;;;5033181;28;20440;-60
2021/11/17 02:36:12;;;;;;;2.00;1.38;;;20.20;54.30;;;;;;5032699;28;20055;-58
2021/11/17 02:39:00;;;;;;;2.58;1.70;;;20.10;54.30;;;;;;5035139;28;20029;-59
2021/11/17 02:41:54;;;;;;;2.50;1.55;;;20.10;54.30;;;;;;5032558;28;20025;-60
2021/11/17 02:44:32;;;;;;;2.08;1.48;;;20.10;54.30;;;;;;5031545;28;20458;-60
2021/11/17 02:47:08;;;;;;;1.98;1.50;;;20.10;54.30;;;;;;5048727;28;20132;-59
2021/11/17 02:50:05;;;;;;;1.80;1.40;;;20.10;54.20;;;;;;5032092;28;20510;-60
2021/11/17 02:52:56;;;;;;;2.22;1.58;;;20.10;54.20;;;;;;5033567;28;20025;-60
2021/11/17 02:55:42;;;;;;;2.10;1.52;;;20.10;54.70;;;;;;5030226;28;20108;-58
2021/11/17 02:58:07;;;;;;;2.17;1.60;;;20.10;54.20;;;;;;5033147;28;20029;-56
2021/11/17 03:00:54;;;;;;;2.03;1.33;;;20.10;54.20;;;;;;5030747;28;20072;-60
2021/11/17 03:03:29;;;;;;;2.05;1.35;;;20.10;54.20;;;;;;5029866;28;20055;-58
2021/11/17 03:06:04;;;;;;;2.28;1.50;;;20.00;54.20;;;;;;5036444;28;20036;-59
2021/11/17 03:09:02;;;;;;;2.13;1.48;;;20.10;54.20;;;;;;5029735;28;20407;-59
2021/11/17 03:11:28;;;;;;;2.08;1.40;;;20.10;54.20;;;;;;5069585;28;20024;-61
2021/11/17 03:14:31;;;;;;;2.10;1.50;;;20.10;54.20;;;;;;5034430;28;20051;-60
2021/11/17 03:17:05;;;;;;;1.88;1.30;;;20.10;54.30;;;;;;5032273;28;20043;-59
2021/11/17 03:19:43;;;;;;;2.30;1.58;;;20.10;54.20;;;;;;5026698;28;20346;-61
2021/11/17 03:22:31;;;;;;;2.10;1.40;;;20.00;54.20;;;;;;5038407;28;20037;-60
2021/11/17 03:25:17;;;;;;;1.88;1.27;;;20.00;54.20;;;;;;5030284;28;20111;-60
2021/11/17 03:28:01;;;;;;;2.00;1.42;;;20.10;54.30;;;;;;5037511;28;20037;-59
2021/11/17 03:30:52;;;;;;;1.70;1.30;;;20.00;54.20;;;;;;5028901;28;20077;-60
2021/11/17 03:33:36;;;;;;;2.03;1.40;;;20.00;54.20;;;;;;5029784;28;20025;-60
2021/11/17 03:36:19;;;;;;;2.55;1.50;;;20.00;54.20;;;;;;5030796;28;20037;-58
2021/11/17 03:39:11;;;;;;;2.15;1.30;;;20.00;54.20;;;;;;5033160;28;20033;-60
2021/11/17 03:42:05;;;;;;;2.25;1.60;;;20.00;54.20;;;;;;5030750;28;20025;-59
2021/11/17 03:44:39;;;;;;;2.10;1.50;;;20.00;54.20;;;;;;5033667;28;20038;-59
2021/11/17 03:47:13;;;;;;;1.88;1.30;;;20.00;54.20;;;;;;5031776;28;20025;-60
2021/11/17 03:49:58;;;;;;;1.98;1.50;;;20.00;54.20;;;;;;5034018;28;20122;-59
2021/11/17 03:52:35;;;;;;;2.00;1.50;;;20.00;54.10;;;;;;5031774;28;20697;-59
2021/11/17 03:55:10;;;;;;;2.08;1.42;;;20.00;54.20;;;;;;5033826;28;20033;-61
2021/11/17 03:57:35;;;;;;;2.40;1.40;;;20.00;54.20;;;;;;5036102;28;20033;-57
2021/11/17 04:00:33;;;;;;;1.70;1.30;;;20.00;54.20;;;;;;5031724;28;20037;-60
2021/11/17 04:03:17;;;;;;;2.47;1.50;;;20.00;54.20;;;;;;5035064;28;20152;-59
2021/11/17 04:06:00;;;;;;;1.80;1.30;;;20.00;54.20;;;;;;5032988;28;20498;-61
2021/11/17 04:08:35;;;;;;;1.95;1.40;;;20.00;54.20;;;;;;5040523;28;20482;-61
2021/11/17 04:11:25;;;;;;;1.77;1.20;;;20.00;54.20;;;;;;5036785;28;20029;-59
2021/11/17 04:14:13;;;;;;;1.85;1.30;;;20.00;54.20;;;;;;5036260;28;20482;-60
2021/11/17 04:16:47;;;;;;;2.13;1.50;;;19.90;54.10;;;;;;5038135;28;20028;-59
2021/11/17 04:19:15;;;;;;;1.58;1.15;;;19.90;54.10;;;;;;5037903;28;20174;-56
2021/11/17 04:22:14;;;;;;;2.05;1.48;;;20.00;54.20;;;;;;5042347;28;20045;-60
2021/11/17 04:25:15;;;;;;;2.30;1.50;;;20.00;54.20;;;;;;5029121;28;20029;-59
2021/11/17 04:27:50;;;;;;;1.95;1.40;;;20.00;54.20;;;;;;5015378;28;20044;-58
2021/11/17 04:30:37;;;;;;;2.20;1.40;;;20.00;54.20;;;;;;5033333;28;20107;-60
2021/11/17 04:33:15;;;;;;;1.65;1.20;;;20.00;54.20;;;;;;5034598;28;20037;-60
2021/11/17 04:35:52;;;;;;;1.75;1.30;;;20.00;54.20;;;;;;5036016;28;20040;-57
2021/11/17 04:38:36;;;;;;;1.77;1.20;;;19.90;54.20;;;;;;5034648;28;20036;-60
2021/11/17 04:41:20;;;;;;;1.85;1.35;;;19.90;54.20;;;;;;5036005;28;20052;-60
2021/11/17 04:43:55;;;;;;;1.70;1.30;;;19.90;54.20;;;;;;5036464;28;20044;-59
2021/11/17 04:46:39;;;;;;;2.15;1.40;;;19.90;54.20;;;;;;5036265;28;20100;-60
2021/11/17 04:49:26;;;;;;;2.00;1.40;;;19.90;54.30;;;;;;5032999;28;20052;-58
2021/11/17 04:52:07;;;;;;;2.22;1.40;;;19.90;54.30;;;;;;5034391;28;20532;-60
2021/11/17 04:54:39;;;;;;;1.75;1.20;;;19.90;54.40;;;;;;5029694;28;20053;-59
2021/11/17 04:57:20;;;;;;;2.00;1.40;;;19.90;54.40;;;;;;5038953;28;20041;-61
2021/11/17 05:00:14;;;;;;;1.70;1.30;;;19.90;54.40;;;;;;5031890;28;20353;-61
2021/11/17 05:03:17;;;;;;;2.22;1.20;;;19.90;54.40;;;;;;5035124;28;20043;-60
2021/11/17 05:06:24;;;;;;;1.83;1.30;;;19.90;54.40;;;;;;5034780;28;20027;-60
2021/11/17 05:09:18;;;;;;;1.63;1.20;;;19.90;54.40;;;;;;5005738;28;20369;-60
2021/11/17 05:12:25;;;;;;;1.90;1.30;;;19.80;54.40;;;;;;5038348;28;20614;-60
2021/11/17 05:14:57;;;;;;;1.80;1.30;;;19.90;54.60;;;;;;5027924;28;20087;-60
2021/11/17 05:17:43;;;;;;;1.58;1.17;;;19.90;54.50;;;;;;5036175;28;20060;-59
2021/11/17 05:20:34;;;;;;;1.70;1.20;;;19.90;54.50;;;;;;5032713;28;20060;-60
2021/11/17 05:23:15;;;;;;;1.52;1.13;;;19.90;54.50;;;;;;5039021;28;20037;-60
2021/11/17 05:26:10;;;;;;;1.70;1.23;;;19.90;54.50;;;;;;5035637;28;20611;-61
2021/11/17 05:28:48;;;;;;;1.77;1.35;;;19.90;54.60;;;;;;4980518;28;20038;-60
2021/11/17 05:31:41;;;;;;;1.52;1.30;;;19.80;54.50;;;;;;5036015;28;20736;-61
2021/11/17 05:34:21;;;;;;;1.98;1.27;;;19.90;54.60;;;;;;5035254;28;20100;-60
2021/11/17 05:36:47;;;;;;;1.15;1.00;;;19.80;54.50;;;;;;5035743;28;20655;-58
2021/11/17 05:39:30;;;;;;;1.60;1.20;;;19.80;54.50;;;;;;5036532;28;20075;-58
2021/11/17 05:42:37;;;;;;;2.00;1.20;;;19.80;54.50;;;;;;5035874;28;20053;-59
2021/11/17 05:45:24;;;;;;;1.48;1.20;;;19.80;54.60;;;;;;5030002;28;20036;-60
2021/11/17 05:48:09;;;;;;;1.55;1.15;;;19.80;54.60;;;;;;5034195;28;20105;-61
2021/11/17 05:50:57;;;;;;;1.48;1.15;;;19.90;54.60;;;;;;5033501;28;20029;-57
2021/11/17 05:53:31;;;;;;;1.45;1.10;;;19.80;54.60;;;;;;5034333;28;20446;-60
2021/11/17 05:56:33;;;;;;;1.48;1.10;;;19.80;54.60;;;;;;5038160;28;20020;-59
2021/11/17 05:59:27;;;;;;;1.15;0.98;;;19.80;54.60;;;;;;5022046;28;20116;-61
2021/11/17 06:02:16;;;;;;;1.45;1.10;;;19.80;54.70;;;;;;5037027;28;20817;-59
2021/11/17 06:04:42;;;;;;;1.23;1.00;;;19.80;54.70;;;;;;5036654;28;20029;-60
2021/11/17 06:07:07;;;;;;;1.33;1.10;;;19.80;54.60;;;;;;5032777;28;20032;-60
2021/11/17 06:09:33;;;;;;;1.30;1.00;;;19.80;54.60;;;;;;5029098;28;20032;-60
2021/11/17 06:12:03;;;;;;;1.45;1.20;;;19.80;54.70;;;;;;5035105;28;20070;-60
2021/11/17 06:14:42;;;;;;;1.23;1.10;;;19.80;54.60;;;;;;5032922;28;20076;-59
2021/11/17 06:17:16;;;;;;;1.45;1.02;;;19.80;54.70;;;;;;5034623;28;20392;-54
2021/11/17 06:19:46;;;;;;;1.48;1.15;;;19.80;54.70;;;;;;5030712;28;20029;-58
2021/11/17 06:22:12;;;;;;;;;;;19.80;54.70;;;;;;5035406;28;20037;-60
2021/11/17 06:24:39;;;;;;;2.40;1.05;;;19.80;54.70;;;;;;5029649;28;19908;-59
2021/11/17 06:27:07;;;;;;;1.45;1.15;;;19.80;54.70;;;;;;5031803;28;20033;-61
2021/11/17 06:29:37;;;;;;;1.25;1.00;;;19.80;54.70;;;;;;5036356;28;20037;-62
2021/11/17 06:32:04;;;;;;;1.25;1.00;;;19.80;54.70;;;;;;5037596;28;20589;-57
2021/11/17 06:34:35;;;;;;;1.33;1.05;;;19.80;54.70;;;;;;5034972;28;20086;-57
2021/11/17 06:37:04;;;;;;;1.30;1.00;;;19.80;54.70;;;;;;5033289;28;20578;-60
2021/11/17 06:39:31;;;;;;;1.75;1.35;;;19.80;54.70;;;;;;5029633;28;20029;-60
2021/11/17 06:41:59;;;;;;;2.58;1.50;;;19.90;56.00;;;;;;5033996;28;20601;-60
2021/11/17 06:44:25;;;;;;;1.85;1.40;;;20.00;56.50;;;;;;5030903;28;20017;-60
2021/11/17 06:46:52;;;;;;;2.13;1.50;;;20.20;56.30;;;;;;5037612;28;20481;-59
2021/11/17 06:49:18;;;;;;;2.17;1.30;;;20.50;56.10;;;;;;5033293;28;20057;-61
2021/11/17 06:51:44;;;;;;;1.67;1.20;;;20.70;55.90;;;;;;5029523;28;20330;-59
2021/11/17 06:54:09;;;;;;;3.25;1.30;;;20.80;55.70;;;;;;5027653;28;20030;-59
2021/11/17 06:56:35;;;;;;;1.73;1.33;;;21.00;55.60;;;;;;5027752;28;20036;-60
2021/11/17 06:59:01;;;;;;;1.58;1.20;;;21.10;55.60;;;;;;5034813;28;20104;-56
2021/11/17 07:01:26;;;;;;;1.90;1.30;;;21.30;55.60;;;;;;5033538;28;20041;-60
2021/11/17 07:03:52;;;;;;;1.48;1.20;;;21.40;55.40;;;;;;5035375;28;20538;-60
2021/11/17 07:06:17;;;;;;;1.30;1.08;;;21.60;55.30;;;;;;5033645;28;20040;-56
2021/11/17 07:08:43;;;;;;;1.67;1.23;;;21.70;55.10;;;;;;5032742;28;20025;-57
2021/11/17 07:11:09;;;;;;;1.58;1.10;;;21.90;55.20;;;;;;5032847;28;20120;-57
2021/11/17 07:13:34;;;;;;;1.80;1.10;;;22.00;55.00;;;;;;5031319;28;20532;-60
2021/11/17 07:16:02;;;;;;;1.30;1.05;;;22.30;54.60;;;;;;5037797;28;20025;-59
2021/11/17 07:18:28;;;;;;;1.35;0.90;;;22.40;54.20;;;;;;5032628;28;20075;-60
2021/11/17 07:20:54;;;;;;;1.20;0.90;;;22.60;54.00;;;;;;5032229;28;20140;-59
2021/11/17 07:23:20;;;;;;;1.27;1.00;;;22.70;53.80;;;;;;5036394;28;20067;-60
2021/11/17 07:25:46;;;;;;;1.38;0.90;;;22.80;53.70;;;;;;5027130;28;20033;-60
2021/11/17 07:28:12;;;;;;;1.48;1.00;;;23.00;53.60;;;;;;5031812;28;20139;-61
2021/11/17 07:30:40;;;;;;;1.02;0.90;;;23.10;53.40;;;;;;5030442;28;20500;-60
2021/11/17 07:33:07;;;;;;;0.90;0.80;;;23.30;53.20;;;;;;5031594;28;20661;-60
2021/11/17 07:35:37;;;;;;;1.10;0.90;;;23.40;53.30;;;;;;5035262;28;20451;-59
2021/11/17 07:38:06;;;;;;;1.00;0.70;;;23.60;53.10;;;;;;5032201;28;20025;-60
2021/11/17 07:40:33;;;;;;;;;;;23.50;52.90;;;;;;5029033;28;20033;-60
2021/11/17 07:42:59;;;;;;;1.73;0.60;;;23.40;53.10;;;;;;5029474;28;20313;-59
2021/11/17 07:45:25;;;;;;;1.35;0.70;;;23.40;53.60;;;;;;5035095;28;20082;-60
2021/11/17 07:47:52;;;;;;;0.93;0.65;;;23.30;53.80;;;;;;5034658;28;20026;-59
2021/11/17 07:50:18;;;;;;;1.38;0.80;;;23.20;53.90;;;;;;5030983;28;20056;-60
2021/11/17 07:52:44;;;;;;;1.08;0.80;;;23.20;53.90;;;;;;5033008;28;20025;-59
2021/11/17 07:55:15;;;;;;;0.88;0.70;;;23.20;54.20;;;;;;5026769;28;20036;-59
2021/11/17 07:57:42;;;;;;;0.98;0.80;;;23.20;54.40;;;;;;5033342;28;20082;-60
2021/11/17 08:00:14;;;;;;;1.33;0.70;;;23.20;54.60;;;;;;5028690;28;20052;-60
2021/11/17 08:02:40;;;;;;;0.70;0.70;;;23.20;54.70;;;;;;5031743;28;20659;-61
2021/11/17 08:05:07;;;;;;;0.90;0.80;;;23.20;54.60;;;;;;5028581;28;20104;-58
2021/11/17 08:07:34;;;;;;;1.10;0.85;;;23.20;54.70;;;;;;5036224;28;20029;-58
2021/11/17 08:10:00;;;;;;;0.70;0.70;;;23.20;54.80;;;;;;5029727;28;20063;-61
2021/11/17 08:12:26;;;;;;;1.25;0.80;;;23.20;54.80;;;;;;5026126;28;20508;-59
2021/11/17 08:14:52;;;;;;;1.00;0.80;;;23.20;54.80;;;;;;5032612;28;20065;-59
2021/11/17 08:17:19;;;;;;;1.00;0.70;;;23.30;55.00;;;;;;5032103;28;20056;-61
2021/11/17 08:19:45;;;;;;;0.80;0.73;;;23.30;55.20;;;;;;5033939;28;20030;-60
2021/11/17 08:22:11;;;;;;;0.75;0.60;;;23.30;55.10;;;;;;5036454;28;20091;-59
2021/11/17 08:24:39;;;;;;;0.70;0.70;;;23.30;55.10;;;;;;5034749;28;20455;-61
2021/11/17 08:27:18;;;;;;;0.70;0.65;;;23.30;55.10;;;;;;5031863;28;20037;-60
2021/11/17 08:29:47;;;;;;;0.82;0.70;;;23.30;54.90;;;;;;5028506;28;20646;-60
2021/11/17 08:32:14;;;;;;;0.90;0.70;;;23.30;54.90;;;;;;5030445;28;20090;-59
2021/11/17 08:34:39;;;;;;;0.70;0.70;;;23.30;54.90;;;;;;5029371;28;20033;-60
2021/11/17 08:37:05;;;;;;;0.68;0.60;;;23.30;54.80;;;;;;5034341;28;20040;-60
2021/11/17 08:39:31;;;;;;;1.05;0.80;;;23.30;55.00;;;;;;5030740;28;20029;-58
2021/11/17 08:41:57;;;;;;;0.90;0.70;;;23.40;54.80;;;;;;5038158;28;20111;-59
2021/11/17 08:44:23;;;;;;;1.55;0.80;;;23.40;54.60;;;;;;5029222;28;20416;-59
2021/11/17 08:46:48;;;;;;;1.17;0.70;;;23.40;54.60;;;;;;5036191;28;20033;-61
2021/11/17 08:49:14;;;;;;;1.33;0.70;;;23.40;54.60;;;;;;5033033;28;20773;-60
2021/11/17 08:51:41;;;;;;;0.60;0.60;;;23.40;54.80;;;;;;5032376;28;20029;-60
2021/11/17 08:54:07;;;;;;;0.65;0.60;;;23.40;54.60;;;;;;5033058;28;20057;-59
2021/11/17 08:56:33;;;;;;;1.00;0.70;;;23.40;54.50;;;;;;5033655;28;20480;-59
2021/11/17 08:58:59;;;;;;;0.80;0.68;;;23.40;54.40;;;;;;5032969;28;20028;-59
2021/11/17 09:01:25;;;;;;;1.08;0.75;;;23.40;54.50;;;;;;5033736;28;20030;-60
2021/11/17 09:03:51;;;;;;;0.80;0.68;;;23.40;54.40;;;;;;5041631;28;20029;-60
2021/11/17 09:06:16;;;;;;;0.80;0.70;;;23.40;54.30;;;;;;5032415;28;20201;-60
2021/11/17 09:08:42;;;;;;;0.82;0.77;;;23.50;54.30;;;;;;5034220;28;20040;-59
2021/11/17 09:11:14;;;;;;;0.98;0.60;;;23.50;54.60;;;;;;5036979;28;20075;-60
2021/11/17 09:13:40;;;;;;;0.73;0.70;;;23.50;54.40;;;;;;5034777;28;20033;-60
2021/11/17 09:16:07;;;;;;;1.73;0.80;;;23.50;54.50;;;;;;5037014;28;20029;-59
2021/11/17 09:18:34;;;;;;;0.88;0.68;;;23.50;54.50;;;;;;5030295;28;20064;-60
2021/11/17 09:21:02;;;;;;;0.60;0.60;;;23.50;54.50;;;;;;5030154;28;20074;-60
2021/11/17 09:23:29;;;;;;;1.17;0.60;;;23.50;54.60;;;;;;5034309;28;20044;-59
2021/11/17 09:25:57;;;;;;;0.60;0.60;;;23.50;54.60;;;;;;5035707;28;20024;-60
2021/11/17 09:28:25;;;;;;;0.80;0.70;;;23.50;54.40;;;;;;5036838;28;20082;-60
2021/11/17 09:30:52;;;;;;;0.73;0.60;;;23.50;54.50;;;;;;5031985;28;20061;-61
2021/11/17 09:33:19;;;;;;;0.88;0.77;;;23.50;54.30;;;;;;5035924;28;20464;-60
2021/11/17 09:35:45;;;;;;;0.80;0.70;;;23.50;54.30;;;;;;5034987;28;20063;-57
2021/11/17 09:38:12;;;;;;;0.95;0.70;;;23.60;54.50;;;;;;5037470;28;20055;-55
2021/11/17 09:40:45;;;;;;;0.75;0.63;;;23.50;55.20;;;;;;5030809;28;20055;-60
2021/11/17 09:43:12;;;;;;;0.82;0.70;;;23.60;55.40;;;;;;5034470;28;20056;-59
2021/11/17 09:45:41;;;;;;;1.15;0.70;;;23.60;55.30;;;;;;5035176;28;20017;-59
2021/11/17 09:48:12;;;;;;;0.80;0.70;;;23.70;55.50;;;;;;5035280;28;20555;-61
2021/11/17 09:50:42;;;;;;;1.00;0.70;;;23.70;55.00;;;;;;5037189;28;20033;-59
2021/11/17 09:53:20;;;;;;;0.80;0.70;;;23.70;55.50;;;;;;5035415;28;20404;-58
2021/11/17 09:55:53;;;;;;;1.10;0.73;;;23.70;55.40;;;;;;5030764;28;20120;-60
2021/11/17 09:58:30;;;;;;;1.00;0.70;;;23.70;55.10;;;;;;5033475;28;20488;-56
2021/11/17 10:00:56;;;;;;;0.70;0.63;;;23.70;55.00;;;;;;5039816;28;20045;-60
2021/11/17 10:04:02;;;;;;;0.90;0.70;;;23.70;55.30;;;;;;5036625;28;20215;-59
2021/11/17 10:15:00;;;;;;;1.35;0.65;;;23.70;55.50;;;;;;5038902;28;20036;-60
2021/11/17 10:17:49;;;;;;;2.95;0.80;;;23.80;55.70;;;;;;5031823;28;20035;-57
2021/11/17 10:20:46;;;;;;;2.55;0.70;;;23.80;55.40;;;;;;5032308;28;20095;-58
2021/11/17 10:23:18;;;;;;;2.40;0.70;;;23.80;55.80;;;;;;5029787;28;20418;-59
2021/11/17 10:25:55;;;;;;;1.38;0.70;;;23.90;55.90;;;;;;5036531;28;20669;-60
2021/11/17 10:28:44;;;;;;;0.95;0.75;;;23.90;56.20;;;;;;5033191;28;20452;-59
2021/11/17 10:31:21;;;;;;;0.93;0.63;;;23.90;56.30;;;;;;5032358;28;20125;-54
2021/11/17 10:33:59;;;;;;;4.35;0.70;;;23.90;56.40;;;;;;5037271;28;20032;-57
2021/11/17 10:36:43;;;;;;;8.57;3.05;;;23.90;56.70;;;;;;5032952;28;20041;-58
2021/11/17 10:39:08;;;;;;;8.60;3.22;;;23.90;56.20;;;;;;5026577;28;20029;-60
2021/11/17 10:41:36;;;;;;;11.02;3.83;;;23.90;55.70;;;;;;5034013;28;20025;-59
2021/11/17 10:44:08;;;;;;;9.63;3.70;;;23.90;56.20;;;;;;5030212;28;20039;-59
2021/11/17 10:46:45;;;;;;;8.98;3.50;;;23.90;56.10;;;;;;5037793;28;20612;-58
2021/11/17 10:49:15;;;;;;;8.82;3.53;;;23.90;55.80;;;;;;5033487;28;20060;-59
2021/11/17 10:52:00;;;;;;;10.52;3.17;;;23.90;56.60;;;;;;5034130;28;20041;-57
2021/11/17 10:54:30;;;;;;;8.70;3.45;;;23.90;56.00;;;;;;5036001;28;20037;-60
2021/11/17 10:57:09;;;;;;;8.70;3.95;;;24.00;56.10;;;;;;5032356;28;20033;-59
2021/11/17 10:59:37;;;;;;;8.43;3.15;;;24.00;55.90;;;;;;5029211;28;20393;-60
2021/11/17 11:02:06;;;;;;;6.07;3.03;;;24.00;56.10;;;;;;5027121;28;20097;-59
2021/11/17 11:04:37;;;;;;;;;;;24.00;56.90;;;;;;5027281;28;20022;-60
2021/11/17 11:07:30;;;;;;;8.50;2.90;;;24.00;56.70;;;;;;5035050;28;19916;-60
2021/11/17 11:10:20;;;;;;;9.30;3.03;;;24.00;57.20;;;;;;5030317;28;20029;-58
2021/11/17 11:12:48;;;;;;;6.95;2.83;;;24.10;57.00;;;;;;5032580;28;20091;-60
2021/11/17 11:15:18;;;;;;;6.57;2.67;;;24.10;57.20;;;;;;5033403;28;20637;-59
2021/11/17 11:18:09;;;;;;;7.45;2.97;;;24.10;57.20;;;;;;5032150;28;20115;-58
2021/11/17 11:21:05;;;;;;;8.75;3.00;;;24.10;57.80;;;;;;5032269;28;20185;-61
2021/11/17 11:23:35;;;;;;;4.30;1.77;;;24.10;53.80;;;;;;5020607;28;20078;-59
2021/11/17 11:26:20;;;;;;;3.88;1.60;;;24.10;50.50;;;;;;5034508;28;20029;-60
2021/11/17 11:29:01;;;;;;;3.95;1.80;;;24.00;49.40;;;;;;5031074;28;20029;-59
2021/11/17 11:31:49;;;;;;;4.15;1.80;;;23.90;49.40;;;;;;5032396;28;20033;-59
2021/11/17 11:34:14;;;;;;;5.07;1.60;;;23.80;48.80;;;;;;5024963;28;20109;-56
2021/11/17 11:36:46;;;;;;;5.13;1.95;;;23.80;49.20;;;;;;5032084;28;20155;-59
2021/11/17 11:39:11;;;;;;;4.28;1.77;;;23.70;49.00;;;;;;5025558;28;20744;-59
2021/11/17 11:42:08;;;;;;;3.95;1.80;;;23.70;48.90;;;;;;5031915;28;20033;-57
2021/11/17 11:44:33;;;;;;;4.32;1.80;;;23.60;49.10;;;;;;5029290;28;20036;-59
2021/11/17 11:47:11;;;;;;;2.60;1.42;;;23.50;49.20;;;;;;5033107;28;20029;-56
2021/11/17 11:49:40;;;;;;;4.65;2.15;;;23.50;49.20;;;;;;5027534;28;20034;-59
2021/11/17 11:52:23;;;;;;;3.80;1.90;;;23.50;49.50;;;;;;5029959;28;20132;-57
2021/11/17 11:54:55;;;;;;;3.75;1.35;;;23.40;49.60;;;;;;5024975;28;20111;-59
2021/11/17 11:57:46;;;;;;;4.38;1.55;;;23.40;50.20;;;;;;5037431;28;20097;-59
2021/11/17 12:00:25;;;;;;;3.25;1.60;;;23.40;50.60;;;;;;5032421;28;20143;-53
2021/11/17 12:03:02;;;;;;;4.18;1.58;;;23.40;51.20;;;;;;5031246;28;20033;-59
2021/11/17 12:05:33;;;;;;;2.17;1.10;;;23.40;51.80;;;;;;5034159;28;20115;-58
2021/11/17 12:08:09;;;;;;;1.95;1.10;;;23.40;51.90;;;;;;5028842;28;20037;-57
2021/11/17 12:10:40;;;;;;;2.60;1.20;;;23.50;52.20;;;;;;5029022;28;20051;-58
2021/11/17 12:13:16;;;;;;;2.30;1.13;;;23.50;52.30;;;;;;5032388;28;20112;-58
2021/11/17 12:15:59;;;;;;;2.40;1.38;;;23.50;52.40;;;;;;5033616;28;20408;-55
2021/11/17 12:18:25;;;;;;;2.47;1.10;;;23.50;52.60;;;;;;5038065;28;20036;-58
2021/11/17 12:20:59;;;;;;;5.50;1.50;;;23.50;52.70;;;;;;5034298;28;20026;-59
2021/11/17 12:23:33;;;;;;;2.08;1.17;;;23.60;53.10;;;;;;5036587;28;20079;-59
2021/11/17 12:26:10;;;;;;;2.78;1.30;;;23.60;53.20;;;;;;5035593;28;20024;-59
2021/11/17 12:28:56;;;;;;;3.58;1.33;;;23.60;53.80;;;;;;5037396;28;20492;-57
2021/11/17 12:31:25;;;;;;;3.22;1.40;;;23.60;54.00;;;;;;5037512;28;20033;-59
2021/11/17 12:34:06;;;;;;;3.20;1.30;;;23.70;53.50;;;;;;5037187;28;20028;-53
2021/11/17 12:36:36;;;;;;;3.22;1.35;;;23.70;53.90;;;;;;5035267;28;20036;-58
2021/11/17 12:39:11;;;;;;;2.88;1.20;;;23.70;54.00;;;;;;5033323;28;20029;-52
2021/11/17 12:41:39;;;;;;;4.15;1.42;;;23.70;54.00;;;;;;5033106;28;20031;-58
2021/11/17 12:44:20;;;;;;;3.05;1.50;;;23.70;54.20;;;;;;5033364;28;20024;-57
2021/11/17 12:46:50;;;;;;;2.13;1.30;;;23.70;54.20;;;;;;5040919;28;20433;-59
2021/11/17 12:49:29;;;;;;;3.00;1.38;;;23.70;54.60;;;;;;5033159;28;20425;-59
2021/11/17 12:52:15;;;;;;;2.50;1.30;;;23.80;54.70;;;;;;5031773;28;20029;-58
2021/11/17 12:54:55;;;;;;;2.53;1.30;;;23.80;54.60;;;;;;5028262;28;20052;-59
2021/11/17 12:57:34;;;;;;;4.03;1.40;;;23.90;54.90;;;;;;5051828;28;20116;-58
2021/11/17 13:00:12;;;;;;;2.63;1.20;;;23.90;54.90;;;;;;5034109;28;20250;-59
2021/11/17 13:02:54;;;;;;;1.80;1.10;;;23.90;55.30;;;;;;5029381;28;20494;-58
2021/11/17 13:05:42;;;;;;;2.63;1.20;;;23.90;55.30;;;;;;5035584;28;20018;-54
2021/11/17 13:08:10;;;;;;;2.42;1.15;;;23.90;55.50;;;;;;5037616;28;20068;-59
2021/11/17 13:10:48;;;;;;;1.67;1.00;;;23.90;55.80;;;;;;5033040;28;20396;-55
2021/11/17 13:13:14;;;;;;;2.03;0.90;;;23.90;55.70;;;;;;5036254;28;20056;-59
2021/11/17 13:15:47;;;;;;;2.08;1.20;;;23.90;55.60;;;;;;5031253;28;20417;-60
2021/11/17 13:18:33;;;;;;;3.05;1.13;;;24.00;56.70;;;;;;5040633;28;20615;-58
2021/11/17 13:21:10;;;;;;;2.05;1.05;;;24.00;56.10;;;;;;5032060;28;20037;-58
2021/11/17 13:23:59;;;;;;;2.67;1.20;;;24.10;56.00;;;;;;5034822;28;20041;-57
2021/11/17 13:26:25;;;;;;;2.10;1.20;;;24.10;56.10;;;;;;5036628;28;20098;-58
2021/11/17 13:28:52;;;;;;;2.50;1.25;;;24.10;56.40;;;;;;5035295;28;20235;-58
2021/11/17 13:31:38;;;;;;;2.15;1.30;;;24.10;55.70;;;;;;5034655;28;20033;-57
2021/11/17 13:34:11;;;;;;;2.08;1.10;;;24.10;55.80;;;;;;5029147;28;20032;-57
2021/11/17 13:36:43;;;;;;;2.22;1.10;;;24.10;56.30;;;;;;5038552;28;20116;-59
2021/11/17 13:39:11;;;;;;;2.10;1.30;;;24.10;56.10;;;;;;5030733;28;20520;-59
2021/11/17 13:41:41;;;;;;;1.67;1.05;;;24.10;56.00;;;;;;5036477;28;20074;-58
2021/11/17 13:44:07;;;;;;;1.95;1.00;;;24.10;56.50;;;;;;5036728;28;20037;-58
2021/11/17 13:46:33;;;;;;;1.67;1.00;;;24.10;56.20;;;;;;5034438;28;20036;-58
2021/11/17 13:48:58;;;;;;;2.00;1.00;;;24.20;56.50;;;;;;5033696;28;20020;-58
2021/11/17 13:51:27;;;;;;;1.30;0.82;;;24.20;55.70;;;;;;5035145;28;20446;-58
2021/11/17 13:53:54;;;;;;;1.17;0.88;;;24.20;55.90;;;;;;5032746;28;20021;-57
2021/11/17 13:56:28;;;;;;;2.45;1.08;;;24.20;56.60;;;;;;5038310;28;20036;-59
2021/11/17 13:58:54;;;;;;;2.67;1.00;;;24.30;56.30;;;;;;5037439;28;20235;-59
2021/11/17 14:01:20;;;;;;;1.40;1.00;;;24.30;55.90;;;;;;5033034;28;20099;-55
2021/11/17 14:03:46;;;;;;;2.20;1.00;;;24.30;56.00;;;;;;5039250;28;20096;-59
2021/11/17 14:06:15;;;;;;;2.20;1.10;;;24.30;56.50;;;;;;5030306;28;20087;-59
2021/11/17 14:08:41;;;;;;;2.28;1.10;;;24.30;56.70;;;;;;5034577;28;20033;-56
2021/11/17 14:11:08;;;;;;;1.90;0.90;;;24.30;56.60;;;;;;5038104;28;20083;-57
2021/11/17 14:13:34;;;;;;;1.73;1.08;;;24.30;56.90;;;;;;5036661;28;20064;-57
2021/11/17 14:16:00;;;;;;;3.28;1.20;;;24.30;56.70;;;;;;5036937;28;20021;-59
2021/11/17 14:18:28;;;;;;;2.03;1.20;;;24.30;56.30;;;;;;5034101;28;20522;-59
2021/11/17 14:21:01;;;;;;;1.92;1.00;;;24.30;56.40;;;;;;5032792;28;20037;-57
2021/11/17 14:23:27;;;;;;;1.58;0.90;;;24.30;56.60;;;;;;5030389;28;20449;-58
2021/11/17 14:25:53;;;;;;;2.05;1.00;;;24.40;56.50;;;;;;5033189;28;20059;-58
2021/11/17 14:28:23;;;;;;;1.10;0.80;;;24.40;56.80;;;;;;5034653;28;20033;-59
2021/11/17 14:30:53;;;;;;;1.60;0.82;;;24.40;57.10;;;;;;5033637;28;20144;-55
2021/11/17 14:33:23;;;;;;;1.85;0.80;;;24.40;56.90;;;;;;5038835;28;20025;-56
2021/11/17 14:35:49;;;;;;;2.47;1.00;;;24.40;56.90;;;;;;5032948;28;20121;-58
2021/11/17 14:38:18;;;;;;;1.35;0.82;;;24.40;56.90;;;;;;5039215;28;20160;-53
2021/11/17 14:40:45;;;;;;;1.33;0.90;;;24.40;56.80;;;;;;5025775;28;20049;-59
2021/11/17 14:43:12;;;;;;;1.73;1.00;;;24.50;56.30;;;;;;5031160;28;20053;-53
2021/11/17 14:45:39;;;;;;;2.22;1.00;;;24.50;56.70;;;;;;5036666;28;20103;-55
2021/11/17 14:48:05;;;;;;;1.67;1.00;;;24.50;56.50;;;;;;5034487;28;20060;-59
2021/11/17 14:50:31;;;;;;;1.52;0.90;;;24.50;56.90;;;;;;5035201;28;20036;-58
2021/11/17 14:52:56;;;;;;;1.40;0.80;;;24.50;57.30;;;;;;5034666;28;20679;-57
2021/11/17 14:55:25;;;;;;;3.38;1.70;;;24.50;57.00;;;;;;5030438;28;20060;-59
2021/11/17 14:57:53;;;;;;;3.60;1.87;;;24.50;51.30;;;;;;5030483;28;20029;-59
2021/11/17 15:00:24;;;;;;;2.88;1.73;;;24.40;49.20;;;;;;5031240;28;20644;-56
2021/11/17 15:02:52;;;;;;;3.00;1.60;;;24.30;49.40;;;;;;5027875;28;20029;-59
2021/11/17 15:05:17;;;;;;;3.53;1.90;;;24.30;49.10;;;;;;5033375;28;20021;-58
2021/11/17 15:07:43;;;;;;;5.30;1.95;;;24.30;48.80;;;;;;5033137;28;20044;-54
2021/11/17 15:10:12;;;;;;;4.13;1.90;;;24.20;48.70;;;;;;5032140;28;20398;-55
2021/11/17 15:12:39;;;;;;;4.82;1.80;;;24.10;48.60;;;;;;5029766;28;20036;-58
2021/11/17 15:15:12;;;;;;;3.97;1.58;;;24.10;48.90;;;;;;5036244;28;20044;-55
2021/11/17 15:17:38;;;;;;;3.53;1.70;;;24.10;49.00;;;;;;5034715;28;20035;-58
2021/11/17 15:20:06;;;;;;;3.90;1.60;;;24.00;48.70;;;;;;5032370;28;20024;-57
2021/11/17 15:22:33;;;;;;;3.47;1.63;;;24.00;49.10;;;;;;5034416;28;20458;-58
2021/11/17 15:24:59;;;;;;;4.45;2.03;;;23.90;49.00;;;;;;5034166;28;20032;-54
2021/11/17 15:27:25;;;;;;;4.93;2.08;;;23.80;49.00;;;;;;5027762;28;20025;-52
2021/11/17 15:29:52;;;;;;;3.88;1.98;;;23.80;49.00;;;;;;5031138;28;20386;-58
2021/11/17 15:32:19;;;;;;;3.72;1.80;;;23.70;49.10;;;;;;5031629;28;20216;-55
2021/11/17 15:34:46;;;;;;;4.35;1.73;;;23.70;49.10;;;;;;5029316;28;20103;-58
2021/11/17 15:37:12;;;;;;;4.93;2.00;;;23.60;49.20;;;;;;5031274;28;20036;-58
2021/11/17 15:39:37;;;;;;;4.50;1.80;;;23.60;49.40;;;;;;5032634;28;20624;-54
2021/11/17 15:42:04;;;;;;;4.43;2.08;;;23.50;49.50;;;;;;5037602;28;20033;-57
2021/11/17 15:44:29;;;;;;;3.13;1.70;;;23.50;49.50;;;;;;5033814;28;20618;-56
2021/11/17 15:46:58;;;;;;;4.43;1.90;;;23.40;49.60;;;;;;5036285;28;20134;-57
2021/11/17 15:49:24;;;;;;;4.70;2.20;;;23.40;49.70;;;;;;5030167;28;20029;-58
2021/11/17 15:51:50;;;;;;;2.92;1.60;;;23.30;49.80;;;;;;5033703;28;20029;-58
2021/11/17 15:54:17;;;;;;;4.00;1.98;;;23.30;49.80;;;;;;5031297;28;20361;-57
2021/11/17 15:56:43;;;;;;;4.93;2.08;;;23.30;49.90;;;;;;5039331;28;20032;-56
2021/11/17 15:59:11;;;;;;;3.78;1.90;;;23.20;49.90;;;;;;5038757;28;20056;-59